createdAt,value
2019-04-29T00:01:47.158Z,11.40
2019-04-29T00:04:16.716Z,11.40
2019-04-29T00:06:46.817Z,11.40
2019-04-29T00:09:17.671Z,11.20
2019-04-29T00:11:47.381Z,11.20
2019-04-29T00:14:16.904Z,11.10
2019-04-29T00:16:48.227Z,11.10
2019-04-29T00:19:19.371Z,11.10
2019-04-29T00:21:49.127Z,11.10
2019-04-29T00:24:18.701Z,11.30
2019-04-29T00:26:48.295Z,11.20
2019-04-29T00:29:17.906Z,11.10
2019-04-29T00:31:47.504Z,11.00
2019-04-29T00:34:17.206Z,10.80
2019-04-29T00:36:48.473Z,10.70
2019-04-29T00:39:20.832Z,10.70
2019-04-29T00:41:51.984Z,10.60
2019-04-29T00:44:21.992Z,10.60
2019-04-29T00:46:51.801Z,10.50
2019-04-29T00:49:21.618Z,10.40
2019-04-29T00:51:51.278Z,10.30
2019-04-29T00:54:22.472Z,10.30
2019-04-29T00:56:52.077Z,10.30
2019-04-29T00:59:21.512Z,10.30
2019-04-29T01:01:51.098Z,10.30
2019-04-29T01:04:20.661Z,10.30
2019-04-29T01:06:50.307Z,10.40
2019-04-29T01:09:20.529Z,10.40
2019-04-29T01:11:50.126Z,10.40
2019-04-29T01:14:19.843Z,10.40
2019-04-29T01:16:49.417Z,10.30
2019-04-29T01:19:19.058Z,10.30
2019-04-29T01:21:48.732Z,10.30
2019-04-29T01:24:18.195Z,10.20
2019-04-29T01:26:50.457Z,10.10
2019-04-29T01:29:21.574Z,10.00
2019-04-29T01:31:51.167Z,10.00
2019-04-29T01:34:22.418Z,10.00
2019-04-29T01:36:51.949Z,10.00
2019-04-29T01:39:23.110Z,10.00
2019-04-29T01:41:54.320Z,10.10
2019-04-29T01:44:25.564Z,10.10
2019-04-29T01:46:55.073Z,10.10
2019-04-29T01:49:24.804Z,10.00
2019-04-29T01:51:54.390Z,10.00
2019-04-29T01:54:25.216Z,10.10
2019-04-29T01:56:54.730Z,10.00
2019-04-29T01:59:24.254Z,10.00
2019-04-29T02:01:54.045Z,10.10
2019-04-29T02:04:23.656Z,10.10
2019-04-29T02:06:53.130Z,10.10
2019-04-29T02:09:24.401Z,10.10
2019-04-29T02:11:53.966Z,10.10
2019-04-29T02:14:23.714Z,10.30
2019-04-29T02:16:53.295Z,10.40
2019-04-29T02:19:22.754Z,10.50
2019-04-29T02:21:54.068Z,10.50
2019-04-29T02:24:23.562Z,10.60
2019-04-29T02:26:53.037Z,10.70
2019-04-29T02:29:22.790Z,10.70
2019-04-29T02:31:52.231Z,10.80
2019-04-29T02:34:21.695Z,10.80
2019-04-29T02:36:51.120Z,10.80
2019-04-29T02:39:22.277Z,10.90
2019-04-29T02:41:53.390Z,10.90
2019-04-29T02:44:22.810Z,10.80
2019-04-29T02:46:52.392Z,10.90
2019-04-29T02:49:21.888Z,10.90
2019-04-29T02:51:53.095Z,10.90
2019-04-29T02:54:24.663Z,10.90
2019-04-29T02:56:55.790Z,11.00
2019-04-29T02:59:26.814Z,11.00
2019-04-29T03:01:57.997Z,11.00
2019-04-29T03:04:29.227Z,11.00
2019-04-29T03:07:00.037Z,11.00
2019-04-29T03:09:31.363Z,11.00
2019-04-29T03:12:01.882Z,11.00
2019-04-29T03:14:31.688Z,11.00
2019-04-29T03:17:01.608Z,11.00
2019-04-29T03:19:32.889Z,11.00
2019-04-29T03:22:04.092Z,11.00
2019-04-29T03:24:33.705Z,10.90
2019-04-29T03:27:03.549Z,11.00
2019-04-29T03:29:33.117Z,11.00
2019-04-29T03:32:02.855Z,11.10
2019-04-29T03:34:32.376Z,11.10
2019-04-29T03:37:01.941Z,11.10
2019-04-29T03:39:31.443Z,11.10
2019-04-29T03:42:00.993Z,11.20
2019-04-29T03:44:30.560Z,11.30
2019-04-29T03:47:00.165Z,11.30
2019-04-29T03:49:29.674Z,11.30
2019-04-29T03:51:59.157Z,11.30
2019-04-29T03:54:28.575Z,11.40
2019-04-29T03:56:58.028Z,11.40
2019-04-29T03:59:27.615Z,11.40
2019-04-29T04:01:58.739Z,11.40
2019-04-29T04:04:29.954Z,11.40
2019-04-29T04:07:04.023Z,11.40
2019-04-29T04:09:32.281Z,11.20
2019-04-29T04:12:01.767Z,11.20
2019-04-29T04:14:31.372Z,11.10
2019-04-29T04:17:00.621Z,11.10
2019-04-29T04:19:32.796Z,10.90
2019-04-29T04:22:02.309Z,10.90
2019-04-29T04:24:31.948Z,10.90
2019-04-29T04:27:01.511Z,10.80
2019-04-29T04:29:31.035Z,10.80
2019-04-29T04:32:00.452Z,10.80
2019-04-29T04:34:30.080Z,10.80
2019-04-29T04:37:00.466Z,10.70
2019-04-29T04:39:31.744Z,10.70
2019-04-29T04:42:01.125Z,10.70
2019-04-29T04:44:32.285Z,10.70
2019-04-29T04:47:01.797Z,10.80
2019-04-29T04:49:31.504Z,10.80
2019-04-29T04:52:02.118Z,10.70
2019-04-29T04:54:31.727Z,10.70
2019-04-29T04:57:01.341Z,10.70
2019-04-29T04:59:30.923Z,10.80
2019-04-29T05:02:00.454Z,10.80
2019-04-29T05:04:29.911Z,10.90
2019-04-29T05:06:59.468Z,10.80
2019-04-29T05:09:28.938Z,10.90
2019-04-29T05:11:58.513Z,11.00
2019-04-29T05:14:28.283Z,11.00
2019-04-29T05:16:57.994Z,11.10
2019-04-29T05:19:27.599Z,11.10
2019-04-29T05:21:57.092Z,11.10
2019-04-29T05:24:26.557Z,11.10
2019-04-29T05:26:56.057Z,11.30
2019-04-29T05:29:28.586Z,11.20
2019-04-29T05:31:56.741Z,11.20
2019-04-29T05:34:28.016Z,11.40
2019-04-29T05:36:59.130Z,11.40
2019-04-29T05:39:30.412Z,11.50
2019-04-29T05:41:59.899Z,11.50
2019-04-29T05:44:31.093Z,11.60
2019-04-29T05:47:02.285Z,11.70
2019-04-29T05:49:33.462Z,11.80
2019-04-29T05:52:04.649Z,11.90
2019-04-29T05:54:35.584Z,12.00
2019-04-29T05:57:05.431Z,12.10
2019-04-29T05:59:34.917Z,12.20
2019-04-29T06:02:04.508Z,12.30
2019-04-29T06:04:33.979Z,12.50
2019-04-29T06:07:03.519Z,12.60
2019-04-29T06:09:33.044Z,12.60
2019-04-29T06:12:03.531Z,12.70
2019-04-29T06:14:33.080Z,12.70
2019-04-29T06:17:07.518Z,12.80
2019-04-29T06:19:35.107Z,12.90
2019-04-29T06:22:04.844Z,13.00
2019-04-29T06:24:36.913Z,13.10
2019-04-29T06:27:06.574Z,13.10
2019-04-29T06:29:36.242Z,13.10
2019-04-29T06:32:05.851Z,13.20
2019-04-29T06:34:39.586Z,13.20
2019-04-29T06:37:06.570Z,13.20
2019-04-29T06:39:36.036Z,13.30
2019-04-29T06:42:05.635Z,13.30
2019-04-29T06:44:35.112Z,13.40
2019-04-29T06:47:04.758Z,13.40
2019-04-29T06:49:34.316Z,13.50
2019-04-29T06:52:03.839Z,13.50
2019-04-29T06:54:33.284Z,13.50
2019-04-29T06:57:02.906Z,13.60
2019-04-29T06:59:32.427Z,13.70
2019-04-29T07:02:01.911Z,13.80
2019-04-29T07:04:38.467Z,13.80
2019-04-29T07:07:02.712Z,13.90
2019-04-29T07:09:32.189Z,14.00
2019-04-29T07:12:01.999Z,14.10
2019-04-29T07:14:33.238Z,14.20
2019-04-29T07:17:05.551Z,14.30
2019-04-29T07:19:34.124Z,14.40
2019-04-29T07:22:03.778Z,14.50
2019-04-29T07:24:33.305Z,14.50
2019-04-29T07:27:04.360Z,14.60
2019-04-29T07:29:33.978Z,14.70
2019-04-29T07:32:04.792Z,14.70
2019-04-29T07:34:39.098Z,14.70
2019-04-29T07:37:06.201Z,14.80
2019-04-29T07:39:35.695Z,14.80
2019-04-29T07:42:05.166Z,14.80
2019-04-29T07:44:43.825Z,14.80
2019-04-29T07:47:07.316Z,14.90
2019-04-29T07:49:36.831Z,15.00
2019-04-29T07:52:09.882Z,15.00
2019-04-29T07:54:37.576Z,15.10
2019-04-29T07:57:07.153Z,15.00
2019-04-29T07:59:38.260Z,15.00
2019-04-29T08:02:07.695Z,15.00
2019-04-29T08:04:40.221Z,15.00
2019-04-29T08:07:08.440Z,15.10
2019-04-29T08:09:39.847Z,15.10
2019-04-29T08:12:11.166Z,15.10
2019-04-29T08:14:40.833Z,15.10
2019-04-29T08:17:10.223Z,15.20
2019-04-29T08:19:39.689Z,15.20
2019-04-29T08:22:09.249Z,15.30
2019-04-29T08:24:38.715Z,15.40
2019-04-29T08:27:08.203Z,15.40
2019-04-29T08:29:37.651Z,15.50
2019-04-29T08:32:07.182Z,15.60
2019-04-29T08:34:36.771Z,15.70
2019-04-29T08:37:06.242Z,15.80
2019-04-29T08:39:35.740Z,15.80
2019-04-29T08:42:09.183Z,15.90
2019-04-29T08:44:40.580Z,16.00
2019-04-29T08:47:11.738Z,15.90
2019-04-29T08:49:41.301Z,16.10
2019-04-29T08:52:10.921Z,16.20
2019-04-29T08:54:40.350Z,16.10
2019-04-29T08:57:09.878Z,16.20
2019-04-29T08:59:39.503Z,16.30
2019-04-29T09:02:11.370Z,16.40
2019-04-29T09:04:52.977Z,16.40
2019-04-29T09:07:17.090Z,16.40
2019-04-29T09:09:43.586Z,16.60
2019-04-29T09:12:12.997Z,16.60
2019-04-29T09:14:42.474Z,16.70
2019-04-29T09:17:20.130Z,16.60
2019-04-29T09:19:43.176Z,16.80
2019-04-29T09:22:15.459Z,16.80
2019-04-29T09:24:48.224Z,16.70
2019-04-29T09:27:19.498Z,16.70
2019-04-29T09:29:49.059Z,16.70
2019-04-29T09:32:18.432Z,16.90
2019-04-29T09:34:47.837Z,16.90
2019-04-29T09:37:18.613Z,16.70
2019-04-29T09:39:48.409Z,16.80
2019-04-29T09:42:17.549Z,16.70
2019-04-29T09:44:48.674Z,16.70
2019-04-29T09:47:18.224Z,16.70
2019-04-29T09:49:47.681Z,16.50
2019-04-29T09:52:17.147Z,16.50
2019-04-29T09:54:46.675Z,16.40
2019-04-29T09:57:16.173Z,16.40
2019-04-29T09:59:47.343Z,16.40
2019-04-29T10:02:18.735Z,16.40
2019-04-29T10:04:56.886Z,16.40
2019-04-29T10:07:23.487Z,16.40
2019-04-29T10:09:57.323Z,16.40
2019-04-29T10:12:24.827Z,16.30
2019-04-29T10:14:54.287Z,16.40
2019-04-29T10:17:25.596Z,16.50
2019-04-29T10:19:56.822Z,16.50
2019-04-29T10:22:26.332Z,16.60
2019-04-29T10:24:55.816Z,16.60
2019-04-29T10:27:25.284Z,16.60
2019-04-29T10:29:57.130Z,16.60
2019-04-29T10:32:26.870Z,16.60
2019-04-29T10:34:56.417Z,16.60
2019-04-29T10:37:31.472Z,16.60
2019-04-29T10:40:10.858Z,16.60
2019-04-29T10:42:34.227Z,16.60
2019-04-29T10:45:07.831Z,16.70
2019-04-29T10:47:39.183Z,16.80
2019-04-29T10:50:15.504Z,16.70
2019-04-29T10:52:43.537Z,16.70
2019-04-29T10:55:14.551Z,16.80
2019-04-29T10:57:44.906Z,16.70
2019-04-29T11:00:21.764Z,16.80
2019-04-29T11:02:51.147Z,16.70
2019-04-29T11:05:22.706Z,16.80
2019-04-29T11:07:54.031Z,16.80
2019-04-29T11:10:25.932Z,16.80
2019-04-29T11:12:55.727Z,16.80
2019-04-29T11:15:30.649Z,16.70
2019-04-29T11:18:00.600Z,16.60
2019-04-29T11:20:29.987Z,16.50
2019-04-29T11:23:01.311Z,16.40
2019-04-29T11:25:32.762Z,16.30
2019-04-29T11:28:02.601Z,16.30
2019-04-29T11:30:39.536Z,16.30
2019-04-29T11:33:08.471Z,16.40
2019-04-29T11:35:39.495Z,16.40
2019-04-29T11:38:11.017Z,16.40
2019-04-29T11:40:43.619Z,16.40
2019-04-29T11:43:15.653Z,16.40
2019-04-29T11:45:45.408Z,16.50
2019-04-29T11:48:15.025Z,16.30
2019-04-29T11:50:50.208Z,16.40
2019-04-29T11:53:17.509Z,16.20
2019-04-29T11:55:48.391Z,16.20
2019-04-29T11:58:17.844Z,16.20
2019-04-29T12:00:52.095Z,16.20
2019-04-29T12:03:23.517Z,16.40
2019-04-29T12:05:54.619Z,16.40
2019-04-29T12:08:24.092Z,16.50
2019-04-29T12:11:06.653Z,16.50
2019-04-29T12:13:28.269Z,16.60
2019-04-29T12:15:59.644Z,16.30
2019-04-29T12:18:34.035Z,16.20
2019-04-29T12:21:03.656Z,16.20
2019-04-29T12:23:34.343Z,16.00
2019-04-29T12:26:05.051Z,16.10
2019-04-29T12:28:37.899Z,16.00
2019-04-29T12:31:10.372Z,16.10
2019-04-29T12:33:40.515Z,16.10
2019-04-29T12:36:11.627Z,16.20
2019-04-29T12:38:48.824Z,16.20
2019-04-29T12:41:20.450Z,16.30
2019-04-29T12:43:48.489Z,16.40
2019-04-29T12:46:19.403Z,16.40
2019-04-29T12:48:49.193Z,16.50
2019-04-29T12:51:18.921Z,16.60
2019-04-29T12:53:48.410Z,16.50
2019-04-29T12:56:19.639Z,16.50
2019-04-29T12:58:50.600Z,16.40
2019-04-29T13:01:22.382Z,16.30
2019-04-29T13:03:53.511Z,16.30
2019-04-29T13:06:38.493Z,16.20
2019-04-29T13:08:57.491Z,16.20
2019-04-29T13:11:36.106Z,16.20
2019-04-29T13:14:01.862Z,16.20
2019-04-29T13:16:32.366Z,16.20
2019-04-29T13:19:11.689Z,16.20
2019-04-29T13:21:34.804Z,16.20
2019-04-29T13:24:13.475Z,16.20
2019-04-29T13:26:42.311Z,16.30
2019-04-29T13:29:08.642Z,16.30
2019-04-29T13:31:39.364Z,16.40
2019-04-29T13:34:23.537Z,16.40
2019-04-29T13:36:43.554Z,16.40
2019-04-29T13:39:13.181Z,16.50
2019-04-29T13:41:56.869Z,16.60
2019-04-29T13:44:19.299Z,16.80
2019-04-29T13:46:51.088Z,16.80
2019-04-29T13:49:20.431Z,16.90
2019-04-29T13:51:51.671Z,17.00
2019-04-29T13:54:21.132Z,17.00
2019-04-29T13:56:55.920Z,17.10
2019-04-29T13:59:23.388Z,17.20
2019-04-29T14:02:01.235Z,17.30
2019-04-29T14:04:27.478Z,17.10
2019-04-29T14:06:57.801Z,17.10
2019-04-29T14:09:27.522Z,17.10
2019-04-29T14:12:02.128Z,17.30
2019-04-29T14:14:28.445Z,17.20
2019-04-29T14:17:17.165Z,17.40
2019-04-29T14:19:44.524Z,17.50
2019-04-29T14:22:00.327Z,17.50
2019-04-29T14:24:31.003Z,17.50
2019-04-29T14:27:00.710Z,17.60
2019-04-29T14:29:31.353Z,17.60
2019-04-29T14:32:01.518Z,17.60
2019-04-29T14:34:34.788Z,17.60
2019-04-29T14:37:19.726Z,17.70
2019-04-29T14:39:37.627Z,17.70
2019-04-29T14:42:08.814Z,17.70
2019-04-29T14:44:39.950Z,17.70
2019-04-29T14:47:11.251Z,17.70
2019-04-29T14:49:42.307Z,17.70
2019-04-29T14:52:14.856Z,17.80
2019-04-29T14:54:43.558Z,17.70
2019-04-29T14:57:13.370Z,17.80
2019-04-29T14:59:42.865Z,17.70
2019-04-29T15:02:17.383Z,17.40
2019-04-29T15:04:45.546Z,17.30
2019-04-29T15:07:15.089Z,17.20
2019-04-29T15:09:47.109Z,17.20
2019-04-29T15:12:21.900Z,17.30
2019-04-29T15:14:50.059Z,17.40
2019-04-29T15:17:21.541Z,17.30
2019-04-29T15:19:55.656Z,17.10
2019-04-29T15:22:25.579Z,16.90
2019-04-29T15:24:55.036Z,16.70
2019-04-29T15:27:24.450Z,16.80
2019-04-29T15:29:53.925Z,16.70
2019-04-29T15:32:23.819Z,16.70
2019-04-29T15:34:53.614Z,16.70
2019-04-29T15:37:23.096Z,16.80
2019-04-29T15:39:52.696Z,16.80
2019-04-29T15:42:22.245Z,16.90
2019-04-29T15:44:55.872Z,16.90
2019-04-29T15:47:27.537Z,16.90
2019-04-29T15:49:55.863Z,16.90
2019-04-29T15:52:27.568Z,16.90
2019-04-29T15:54:56.781Z,16.90
2019-04-29T15:57:26.482Z,16.80
2019-04-29T16:00:00.042Z,16.60
2019-04-29T16:02:27.291Z,16.50
2019-04-29T16:04:58.558Z,16.50
2019-04-29T16:07:29.670Z,16.40
2019-04-29T16:10:00.867Z,16.40
2019-04-29T16:12:32.436Z,16.30
2019-04-29T16:15:02.074Z,16.30
2019-04-29T16:17:51.006Z,16.30
2019-04-29T16:20:20.613Z,16.40
2019-04-29T16:22:54.225Z,16.40
2019-04-29T16:25:21.508Z,16.40
2019-04-29T16:27:53.391Z,16.30
2019-04-29T16:30:26.161Z,16.30
2019-04-29T16:32:54.195Z,16.30
2019-04-29T16:35:26.021Z,16.20
2019-04-29T16:37:55.089Z,16.20
2019-04-29T16:40:26.349Z,16.20
2019-04-29T16:42:57.609Z,16.00
2019-04-29T16:45:28.858Z,15.90
2019-04-29T16:47:58.350Z,15.80
2019-04-29T16:50:27.978Z,15.80
2019-04-29T16:52:57.660Z,15.70
2019-04-29T16:55:27.289Z,15.60
2019-04-29T16:57:59.776Z,15.60
2019-04-29T17:00:29.899Z,15.50
2019-04-29T17:02:59.690Z,15.50
2019-04-29T17:05:29.449Z,15.40
2019-04-29T17:07:59.084Z,15.40
2019-04-29T17:10:30.396Z,15.40
2019-04-29T17:12:59.986Z,15.30
2019-04-29T17:15:30.096Z,15.30
2019-04-29T17:17:59.625Z,15.20
2019-04-29T17:20:30.534Z,15.20
2019-04-29T17:23:00.085Z,15.10
2019-04-29T17:25:29.728Z,15.10
2019-04-29T17:28:01.193Z,15.10
2019-04-29T17:30:32.559Z,15.00
2019-04-29T17:33:04.558Z,15.00
2019-04-29T17:35:36.391Z,14.90
2019-04-29T17:38:06.181Z,14.90
2019-04-29T17:40:35.952Z,14.90
2019-04-29T17:43:07.426Z,14.90
2019-04-29T17:45:38.831Z,14.80
2019-04-29T17:48:10.124Z,14.80
2019-04-29T17:50:46.203Z,14.80
2019-04-29T17:53:15.281Z,14.80
2019-04-29T17:55:46.715Z,14.80
2019-04-29T17:58:19.826Z,14.70
2019-04-29T18:00:58.283Z,14.70
2019-04-29T18:03:25.211Z,14.60
2019-04-29T18:05:57.636Z,14.70
2019-04-29T18:08:28.981Z,14.60
2019-04-29T18:11:04.755Z,14.50
2019-04-29T18:13:32.650Z,14.50
2019-04-29T18:16:04.646Z,14.50
2019-04-29T18:18:45.835Z,14.40
2019-04-29T18:21:08.060Z,14.40
2019-04-29T18:23:39.169Z,14.40
2019-04-29T18:26:10.385Z,14.40
2019-04-29T18:28:39.916Z,14.40
2019-04-29T18:31:11.220Z,14.40
2019-04-29T18:33:40.844Z,14.40
2019-04-29T18:36:19.603Z,14.30
2019-04-29T18:38:42.423Z,14.30
2019-04-29T18:41:16.464Z,14.40
2019-04-29T18:43:45.216Z,14.40
2019-04-29T18:46:16.654Z,14.30
2019-04-29T18:48:46.157Z,14.30
2019-04-29T18:51:20.830Z,14.20
2019-04-29T18:53:49.903Z,14.20
2019-04-29T18:56:19.516Z,14.20
2019-04-29T18:58:50.334Z,14.20
2019-04-29T19:01:23.937Z,14.10
2019-04-29T19:03:55.731Z,14.20
2019-04-29T19:06:25.413Z,14.10
2019-04-29T19:09:01.553Z,14.10
2019-04-29T19:11:32.134Z,14.00
2019-04-29T19:13:57.797Z,14.00
2019-04-29T19:16:27.634Z,14.00
2019-04-29T19:19:01.571Z,14.00
2019-04-29T19:21:31.483Z,13.80
2019-04-29T19:24:00.765Z,13.80
2019-04-29T19:26:30.737Z,13.70
2019-04-29T19:29:01.394Z,13.60
2019-04-29T19:31:36.882Z,13.40
2019-04-29T19:34:05.358Z,13.40
2019-04-29T19:36:37.463Z,13.30
2019-04-29T19:39:08.558Z,13.20
2019-04-29T19:41:39.755Z,13.20
2019-04-29T19:44:09.169Z,13.20
2019-04-29T19:46:41.277Z,13.10
2019-04-29T19:49:10.251Z,13.20
2019-04-29T19:51:43.726Z,13.10
2019-04-29T19:54:11.173Z,13.10
2019-04-29T19:56:40.881Z,13.10
2019-04-29T19:59:13.457Z,13.10
2019-04-29T20:01:42.157Z,13.00
2019-04-29T20:04:17.711Z,13.00
2019-04-29T20:06:47.964Z,12.90
2019-04-29T20:09:22.226Z,12.90
2019-04-29T20:11:49.608Z,12.80
2019-04-29T20:14:26.233Z,12.80
2019-04-29T20:16:57.266Z,12.70
2019-04-29T20:19:27.302Z,12.70
2019-04-29T20:22:00.458Z,12.70
2019-04-29T20:24:40.885Z,12.60
2019-04-29T20:27:10.635Z,12.60
2019-04-29T20:29:40.525Z,12.50
2019-04-29T20:32:10.475Z,12.50
2019-04-29T20:34:40.438Z,12.40
2019-04-29T20:37:10.819Z,12.40
2019-04-29T20:39:41.338Z,12.40
2019-04-29T20:42:11.108Z,12.30
2019-04-29T20:44:44.477Z,12.30
2019-04-29T20:47:20.301Z,12.20
2019-04-29T20:49:43.302Z,12.20
2019-04-29T20:52:20.302Z,12.20
2019-04-29T20:54:52.632Z,12.20
2019-04-29T20:57:18.826Z,12.10
2019-04-29T20:59:50.407Z,12.00
2019-04-29T21:02:30.317Z,11.90
2019-04-29T21:04:50.811Z,11.90
2019-04-29T21:07:23.925Z,11.90
2019-04-29T21:09:52.829Z,11.90
2019-04-29T21:12:25.556Z,11.90
2019-04-29T21:14:59.408Z,11.80
2019-04-29T21:17:32.007Z,11.80
2019-04-29T21:20:01.175Z,11.80
2019-04-29T21:22:31.015Z,11.80
2019-04-29T21:25:00.513Z,11.80
2019-04-29T21:27:29.978Z,11.80
2019-04-29T21:29:59.550Z,11.80
2019-04-29T21:32:30.478Z,11.80
2019-04-29T21:35:05.625Z,11.70
2019-04-29T21:37:39.989Z,11.70
2019-04-29T21:40:16.824Z,11.60
2019-04-29T21:42:41.990Z,11.60
2019-04-29T21:45:13.404Z,11.50
2019-04-29T21:47:45.734Z,11.40
2019-04-29T21:50:16.453Z,11.40
2019-04-29T21:52:46.844Z,11.30
2019-04-29T21:55:20.574Z,11.20
2019-04-29T21:57:48.258Z,11.20
2019-04-29T22:00:24.505Z,11.10
2019-04-29T22:02:55.302Z,11.00
2019-04-29T22:05:25.151Z,10.90
2019-04-29T22:07:54.961Z,10.90
2019-04-29T22:10:28.857Z,10.90
2019-04-29T22:13:01.787Z,10.90
2019-04-29T22:15:32.721Z,10.80
2019-04-29T22:18:01.301Z,10.70
2019-04-29T22:20:29.429Z,10.80
2019-04-29T22:22:59.007Z,10.80
2019-04-29T22:25:28.483Z,10.90
2019-04-29T22:27:58.055Z,10.90
2019-04-29T22:30:27.635Z,10.90
2019-04-29T22:32:58.891Z,10.90
2019-04-29T22:35:32.704Z,10.90
2019-04-29T22:37:59.497Z,10.90
2019-04-29T22:40:29.051Z,10.90
2019-04-29T22:43:08.782Z,10.80
2019-04-29T22:45:33.800Z,10.70
2019-04-29T22:48:14.395Z,10.40
2019-04-29T22:50:38.079Z,10.30
2019-04-29T22:53:07.863Z,10.20
2019-04-29T22:55:38.846Z,10.00
2019-04-29T22:58:10.093Z,9.80
2019-04-29T23:00:39.811Z,9.90
2019-04-29T23:03:10.933Z,9.80
2019-04-29T23:05:40.522Z,9.70
2019-04-29T23:08:10.027Z,9.60
2019-04-29T23:10:39.632Z,9.50
2019-04-29T23:13:09.073Z,9.40
2019-04-29T23:15:38.546Z,9.30
2019-04-29T23:18:08.435Z,9.20
2019-04-29T23:20:39.581Z,9.20
2019-04-29T23:23:10.807Z,9.20
2019-04-29T23:25:41.813Z,9.30
2019-04-29T23:28:11.375Z,9.30
2019-04-29T23:30:40.975Z,9.20
2019-04-29T23:33:10.457Z,9.30
2019-04-29T23:35:41.021Z,9.30
2019-04-29T23:38:10.630Z,9.30
2019-04-29T23:40:40.447Z,9.40
2019-04-29T23:43:10.065Z,9.10
2019-04-29T23:45:39.556Z,8.90
2019-04-29T23:48:09.130Z,8.70
2019-04-29T23:50:38.497Z,8.60
2019-04-29T23:53:07.981Z,8.40
2019-04-29T23:55:37.379Z,8.60
2019-04-29T23:58:08.570Z,8.70
